createdAt,value
2019-01-18T00:01:48.788Z,65.10
2019-01-18T00:05:52.219Z,64.80
2019-01-18T00:09:55.623Z,64.50
2019-01-18T00:13:59.050Z,63.60
2019-01-18T00:18:02.474Z,64.30
2019-01-18T00:22:05.967Z,64.20
2019-01-18T00:26:09.403Z,64.10
2019-01-18T00:30:19.038Z,64.10
2019-01-18T00:34:22.477Z,63.80
2019-01-18T00:38:25.902Z,63.90
2019-01-18T00:42:29.322Z,63.70
2019-01-18T00:46:32.782Z,63.80
2019-01-18T00:50:36.189Z,63.60
2019-01-18T00:54:39.614Z,62.90
2019-01-18T00:58:43.033Z,63.90
2019-01-18T01:02:46.537Z,63.60
2019-01-18T01:06:49.979Z,63.60
2019-01-18T01:10:53.409Z,63.80
2019-01-18T01:14:56.843Z,63.60
2019-01-18T01:19:00.261Z,63.70
2019-01-18T01:23:03.757Z,63.70
2019-01-18T01:27:07.208Z,63.50
2019-01-18T01:31:10.620Z,63.60
2019-01-18T01:35:14.124Z,63.60
2019-01-18T01:39:17.553Z,63.40
2019-01-18T01:43:20.980Z,63.30
2019-01-18T01:47:24.664Z,63.40
2019-01-18T01:51:28.092Z,63.70
2019-01-18T01:55:31.515Z,63.60
2019-01-18T01:59:35.212Z,63.90
2019-01-18T02:03:38.640Z,64.00
2019-01-18T02:07:42.053Z,63.80
2019-01-18T02:11:45.484Z,63.70
2019-01-18T02:15:48.916Z,63.80
2019-01-18T02:19:52.348Z,63.80
2019-01-18T02:23:55.785Z,64.10
2019-01-18T02:27:59.230Z,64.50
2019-01-18T02:32:02.658Z,64.70
2019-01-18T02:36:06.097Z,64.80
2019-01-18T02:40:11.937Z,65.10
2019-01-18T02:44:15.373Z,65.10
2019-01-18T02:48:18.783Z,65.30
2019-01-18T02:52:22.213Z,65.40
2019-01-18T02:56:25.644Z,65.60
2019-01-18T03:00:29.094Z,65.50
2019-01-18T03:04:32.528Z,65.80
2019-01-18T03:08:35.942Z,65.50
2019-01-18T03:12:39.441Z,65.70
2019-01-18T03:16:42.869Z,65.00
2019-01-18T03:20:46.304Z,65.70
2019-01-18T03:24:49.757Z,66.00
2019-01-18T03:28:54.668Z,66.20
2019-01-18T03:32:58.101Z,66.30
2019-01-18T03:37:01.531Z,66.40
2019-01-18T03:41:05.109Z,66.50
2019-01-18T03:45:14.502Z,66.60
2019-01-18T03:49:18.000Z,66.40
2019-01-18T03:53:21.620Z,65.90
2019-01-18T03:57:25.051Z,66.20
2019-01-18T04:01:28.476Z,66.10
2019-01-18T04:05:31.901Z,65.90
2019-01-18T04:09:35.344Z,65.70
2019-01-18T04:13:38.789Z,66.30
2019-01-18T04:17:42.206Z,65.50
2019-01-18T04:21:45.633Z,65.70
2019-01-18T04:25:49.055Z,65.50
2019-01-18T04:29:52.496Z,65.70
2019-01-18T04:33:56.042Z,65.80
2019-01-18T04:37:59.504Z,65.60
2019-01-18T04:42:02.923Z,65.40
2019-01-18T04:46:06.419Z,65.40
2019-01-18T04:50:15.064Z,65.40
2019-01-18T04:54:18.488Z,65.70
2019-01-18T04:58:21.976Z,65.90
2019-01-18T05:02:25.393Z,65.90
2019-01-18T05:06:28.833Z,65.90
2019-01-18T05:10:32.273Z,66.10
2019-01-18T05:14:35.721Z,66.30
2019-01-18T05:18:39.149Z,66.20
2019-01-18T05:22:42.561Z,67.00
2019-01-18T05:26:45.993Z,66.60
2019-01-18T05:30:49.422Z,67.30
2019-01-18T05:34:52.852Z,67.50
2019-01-18T05:38:56.270Z,68.60
2019-01-18T05:42:59.708Z,69.10
2019-01-18T05:47:03.139Z,69.40
2019-01-18T05:51:06.574Z,70.00
2019-01-18T05:55:10.680Z,70.30
2019-01-18T05:59:14.105Z,70.30
2019-01-18T06:03:17.536Z,70.50
2019-01-18T06:07:20.974Z,70.10
2019-01-18T06:11:24.570Z,71.70
2019-01-18T06:15:27.992Z,71.40
2019-01-18T06:19:31.419Z,71.70
2019-01-18T06:23:34.862Z,71.60
2019-01-18T06:27:38.305Z,71.80
2019-01-18T06:31:41.740Z,71.90
2019-01-18T06:35:45.166Z,72.10
2019-01-18T06:39:48.669Z,72.30
2019-01-18T06:43:52.871Z,72.40
2019-01-18T06:47:56.404Z,72.40
2019-01-18T06:51:59.844Z,72.20
2019-01-18T06:56:03.268Z,72.50
2019-01-18T07:00:09.797Z,72.80
2019-01-18T07:04:13.284Z,72.80
2019-01-18T07:08:16.719Z,72.40
2019-01-18T07:12:20.140Z,72.30
2019-01-18T07:16:23.574Z,72.40
2019-01-18T07:20:27.004Z,71.40
2019-01-18T07:24:30.433Z,72.10
2019-01-18T07:28:33.875Z,72.00
2019-01-18T07:32:37.284Z,71.90
2019-01-18T07:36:40.712Z,71.20
2019-01-18T07:40:44.140Z,72.00
2019-01-18T07:44:47.569Z,71.90
2019-01-18T07:48:51.012Z,71.50
2019-01-18T07:52:54.507Z,71.50
2019-01-18T07:56:57.960Z,71.60
2019-01-18T08:01:01.392Z,71.50
2019-01-18T08:05:07.480Z,71.50
2019-01-18T08:09:10.933Z,71.70
2019-01-18T08:13:14.348Z,71.50
2019-01-18T08:17:17.792Z,71.40
2019-01-18T08:21:21.228Z,71.50
2019-01-18T08:25:24.657Z,71.40
2019-01-18T08:29:28.100Z,72.10
2019-01-18T08:33:31.540Z,71.00
2019-01-18T08:37:34.972Z,71.10
2019-01-18T08:41:38.402Z,71.20
2019-01-18T08:45:44.781Z,71.00
2019-01-18T08:49:49.733Z,71.00
2019-01-18T08:53:53.163Z,70.90
2019-01-18T08:57:56.605Z,70.80
2019-01-18T09:02:00.057Z,70.90
2019-01-18T09:06:03.572Z,70.70
2019-01-18T09:10:12.952Z,70.70
2019-01-18T09:14:19.593Z,70.50
2019-01-18T09:18:21.532Z,70.20
2019-01-18T09:22:25.181Z,69.10
2019-01-18T09:26:28.612Z,69.10
2019-01-18T09:30:34.950Z,68.60
2019-01-18T09:34:38.361Z,68.90
2019-01-18T09:38:41.804Z,68.50
2019-01-18T09:42:45.323Z,68.00
2019-01-18T09:46:48.732Z,67.40
2019-01-18T09:50:52.164Z,66.60
2019-01-18T09:54:55.587Z,66.20
2019-01-18T09:58:59.016Z,65.00
2019-01-18T10:03:02.442Z,64.50
2019-01-18T10:07:05.861Z,64.20
2019-01-18T10:11:09.298Z,63.60
2019-01-18T10:15:15.556Z,63.20
2019-01-18T10:19:18.988Z,62.10
2019-01-18T10:23:22.476Z,61.30
2019-01-18T10:27:25.891Z,60.00
2019-01-18T10:31:29.330Z,60.50
2019-01-18T10:35:32.764Z,58.90
2019-01-18T10:39:36.285Z,58.50
2019-01-18T10:43:41.266Z,58.20
2019-01-18T10:47:45.020Z,57.40
2019-01-18T10:51:48.452Z,57.10
2019-01-18T10:55:51.884Z,57.30
2019-01-18T10:59:55.320Z,56.40
2019-01-18T11:03:58.749Z,56.10
2019-01-18T11:08:02.172Z,55.10
2019-01-18T11:12:05.683Z,54.50
2019-01-18T11:16:09.161Z,54.60
2019-01-18T11:20:24.500Z,54.20
2019-01-18T11:24:27.925Z,53.90
2019-01-18T11:28:31.360Z,53.50
2019-01-18T11:32:34.792Z,53.70
2019-01-18T11:36:38.224Z,53.30
2019-01-18T11:40:41.666Z,53.40
2019-01-18T11:44:45.060Z,52.70
2019-01-18T11:48:50.396Z,53.10
2019-01-18T11:52:53.648Z,53.30
2019-01-18T11:56:57.081Z,53.00
2019-01-18T12:01:00.513Z,52.80
2019-01-18T12:05:05.379Z,53.20
2019-01-18T12:09:08.872Z,53.10
2019-01-18T12:13:12.315Z,53.00
2019-01-18T12:17:15.749Z,52.90
2019-01-18T12:21:19.168Z,52.90
2019-01-18T12:25:22.588Z,52.90
2019-01-18T12:29:26.025Z,53.00
2019-01-18T12:33:29.457Z,53.10
2019-01-18T12:37:32.916Z,53.20
2019-01-18T12:41:36.327Z,53.20
2019-01-18T12:45:39.758Z,53.30
2019-01-18T12:49:43.185Z,53.20
2019-01-18T12:53:46.612Z,53.10
2019-01-18T12:57:50.058Z,52.80
2019-01-18T13:01:53.467Z,52.10
2019-01-18T13:05:56.892Z,51.50
2019-01-18T13:10:00.322Z,50.80
2019-01-18T13:14:05.281Z,49.60
2019-01-18T13:18:08.924Z,48.10
2019-01-18T13:22:12.340Z,47.90
2019-01-18T13:26:15.770Z,48.10
2019-01-18T13:30:19.850Z,47.90
2019-01-18T13:34:23.276Z,47.50
2019-01-18T13:38:26.724Z,47.20
2019-01-18T13:42:30.147Z,47.20
2019-01-18T13:46:33.657Z,46.90
2019-01-18T13:50:37.091Z,47.10
2019-01-18T13:54:40.522Z,46.60
2019-01-18T13:58:43.945Z,46.70
2019-01-18T14:02:48.573Z,47.10
2019-01-18T14:06:52.484Z,46.70
2019-01-18T14:10:55.986Z,47.20
2019-01-18T14:14:59.669Z,47.20
2019-01-18T14:19:03.088Z,47.00
2019-01-18T14:23:06.520Z,47.10
2019-01-18T14:27:09.943Z,47.30
2019-01-18T14:31:13.382Z,47.60
2019-01-18T14:35:16.884Z,47.70
2019-01-18T14:39:20.312Z,47.70
2019-01-18T14:43:23.744Z,47.90
2019-01-18T14:47:27.185Z,48.00
2019-01-18T14:51:30.616Z,48.30
2019-01-18T14:55:35.172Z,48.50
2019-01-18T14:59:38.599Z,49.00
2019-01-18T15:03:42.029Z,49.30
2019-01-18T15:07:45.468Z,49.60
2019-01-18T15:11:48.901Z,50.00
2019-01-18T15:15:52.333Z,50.40
2019-01-18T15:19:55.767Z,50.70
2019-01-18T15:23:59.188Z,51.00
2019-01-18T15:28:02.620Z,51.20
2019-01-18T15:32:06.058Z,51.30
2019-01-18T15:36:09.499Z,51.60
2019-01-18T15:40:19.018Z,52.10
2019-01-18T15:44:22.456Z,52.20
2019-01-18T15:48:25.884Z,52.30
2019-01-18T15:52:29.308Z,52.60
2019-01-18T15:56:32.741Z,52.80
2019-01-18T16:00:41.256Z,52.90
2019-01-18T16:04:44.685Z,53.10
2019-01-18T16:08:48.124Z,53.00
2019-01-18T16:12:51.691Z,53.60
2019-01-18T16:16:55.678Z,53.60
2019-01-18T16:20:59.120Z,53.70
2019-01-18T16:25:02.656Z,53.70
2019-01-18T16:29:06.138Z,53.80
2019-01-18T16:33:09.607Z,53.90
2019-01-18T16:37:13.042Z,54.00
2019-01-18T16:41:16.481Z,54.00
2019-01-18T16:45:19.985Z,54.30
2019-01-18T16:49:23.413Z,54.70
2019-01-18T16:53:26.847Z,55.10
2019-01-18T16:57:30.285Z,55.40
2019-01-18T17:01:33.716Z,55.70
2019-01-18T17:05:37.153Z,56.10
2019-01-18T17:09:40.591Z,56.30
2019-01-18T17:13:44.033Z,56.50
2019-01-18T17:17:47.477Z,56.70
2019-01-18T17:21:50.905Z,56.90
2019-01-18T17:25:55.261Z,57.00
2019-01-18T17:29:58.912Z,57.20
2019-01-18T17:34:02.428Z,57.50
2019-01-18T17:38:17.929Z,58.00
2019-01-18T17:42:27.108Z,58.30
2019-01-18T17:46:54.645Z,58.60
2019-01-18T17:51:23.764Z,58.60
2019-01-18T17:55:50.609Z,58.80
2019-01-18T18:00:16.395Z,59.20
2019-01-18T18:04:40.878Z,59.40
2019-01-18T18:09:02.780Z,59.60
2019-01-18T18:13:30.988Z,59.50
2019-01-18T18:17:40.372Z,59.60
2019-01-18T18:22:15.514Z,59.60
2019-01-18T18:26:33.939Z,59.50
2019-01-18T18:30:40.433Z,59.10
2019-01-18T18:34:58.710Z,59.60
2019-01-18T18:39:13.984Z,59.80
2019-01-18T18:43:41.636Z,60.20
2019-01-18T18:48:00.124Z,60.30
2019-01-18T18:52:23.255Z,60.30
2019-01-18T18:56:46.132Z,60.40
2019-01-18T19:01:01.345Z,60.40
2019-01-18T19:05:07.858Z,60.80
2019-01-18T19:09:31.664Z,61.10
2019-01-18T19:13:57.425Z,60.60
2019-01-18T19:18:30.789Z,61.20
2019-01-18T19:22:46.037Z,61.20
2019-01-18T19:27:15.101Z,61.00
2019-01-18T19:31:53.173Z,61.30
2019-01-18T19:35:59.680Z,61.10
2019-01-18T19:40:21.164Z,61.40
2019-01-18T19:44:27.677Z,61.40
2019-01-18T19:48:52.061Z,61.50
2019-01-18T19:53:01.209Z,61.60
2019-01-18T19:57:22.460Z,61.10
2019-01-18T20:01:34.978Z,61.80
2019-01-18T20:05:44.498Z,60.90
2019-01-18T20:10:11.920Z,61.70
2019-01-18T20:14:37.272Z,62.00
2019-01-18T20:18:55.315Z,62.50
2019-01-18T20:23:18.459Z,61.80
2019-01-18T20:27:27.838Z,62.00
2019-01-18T20:31:39.889Z,61.50
2019-01-18T20:36:04.447Z,61.70
2019-01-18T20:40:17.309Z,62.30
2019-01-18T20:44:38.601Z,62.40
2019-01-18T20:48:47.914Z,63.30
2019-01-18T20:52:57.152Z,62.70
2019-01-18T20:57:24.712Z,63.10
2019-01-18T21:02:04.395Z,63.10
2019-01-18T21:06:10.916Z,63.10
2019-01-18T21:10:20.116Z,62.90
2019-01-18T21:14:44.694Z,63.10
2019-01-18T21:18:53.874Z,63.40
2019-01-18T21:23:02.972Z,63.50
2019-01-18T21:27:26.132Z,63.80
2019-01-18T21:31:44.658Z,63.00
2019-01-18T21:36:03.333Z,63.60
2019-01-18T21:40:21.900Z,63.60
2019-01-18T21:44:40.195Z,63.50
2019-01-18T21:49:16.834Z,63.70
2019-01-18T21:53:29.353Z,64.10
2019-01-18T21:57:50.156Z,63.30
2019-01-18T22:02:08.509Z,63.90
2019-01-18T22:06:23.640Z,64.00
2019-01-18T22:10:52.884Z,64.10
2019-01-18T22:15:05.042Z,64.30
2019-01-18T22:19:14.109Z,64.20
2019-01-18T22:23:20.629Z,64.20
2019-01-18T22:27:43.652Z,64.20
2019-01-18T22:31:52.620Z,64.40
2019-01-18T22:36:17.216Z,64.10
2019-01-18T22:40:46.428Z,64.30
2019-01-18T22:45:27.613Z,64.40
2019-01-18T22:49:39.984Z,64.40
2019-01-18T22:53:49.184Z,64.50
2019-01-18T22:57:58.304Z,64.60
2019-01-18T23:02:27.643Z,64.40
2019-01-18T23:06:46.077Z,64.30
2019-01-18T23:10:58.539Z,64.60
2019-01-18T23:15:19.990Z,64.70
2019-01-18T23:19:32.053Z,64.70
2019-01-18T23:24:02.643Z,64.90
2019-01-18T23:28:42.168Z,64.70
2019-01-18T23:32:51.266Z,64.60
2019-01-18T23:36:57.783Z,64.80
2019-01-18T23:41:20.928Z,64.80
2019-01-18T23:45:39.331Z,64.70
2019-01-18T23:50:03.892Z,64.60
2019-01-18T23:54:22.179Z,64.70
2019-01-18T23:58:55.968Z,64.70
